Terminal Aerodrome Forecast
Issued by NWS

Home | Current Version | Previous Version | Text Only | Print | Product List | Glossary On
Versions: 1 2 3 4 5 6 7 8 9 10 11 12
307
FTUS44 KLZK 181730
TAFBPK
TAF
KBPK 181730Z 1818/1918 17006KT P6SM SKC
     FM182300 VRB02KT P6SM SCT250
     FM190000 16004KT P6SM SCT250=

USA.gov is the U.S. government's official web portal to all federal, state and local government web resources and services.